Time;durP1;ratioP1;P1;durP2;ratioP2;P2;SDS_P1;SDS_P2;PMS_P1;PMS_P2;Temp;Humidity;BMP_temperature;BMP_pressure;BME280_temperature;BME280_humidity;BME280_pressure;Samples;Min_cycle;Max_cycle;Signal;HPM_P1;HPM_P2
2023/04/28 00:02:44;;;;;;;3.47;1.45;;;;;;;7.18;84.21;101432.47;6300041;28;20360;-79
2023/04/28 00:05:48;;;;;;;4.72;2.25;;;;;;;7.20;84.75;101427.19;6300345;28;20122;-79
2023/04/28 00:08:49;;;;;;;4.15;1.83;;;;;;;7.18;84.36;101429.00;6300037;28;20345;-79
2023/04/28 00:11:52;;;;;;;4.88;1.73;;;;;;;7.12;85.04;101423.00;6298906;28;20052;-79
2023/04/28 00:14:53;;;;;;;2.85;1.52;;;;;;;7.18;84.89;101418.53;6275010;28;20057;-79
2023/04/28 00:17:55;;;;;;;2.20;1.42;;;;;;;7.24;84.11;101416.59;6275337;28;20049;-79
2023/04/28 00:20:56;;;;;;;3.60;1.98;;;;;;;7.21;82.83;101411.44;6274836;28;20346;-79
2023/04/28 00:23:57;;;;;;;2.70;1.65;;;;;;;7.27;83.18;101410.44;6274989;28;20048;-80
2023/04/28 00:27:01;;;;;;;2.33;1.77;;;;;;;7.30;83.21;101408.56;6274980;28;20056;-79
2023/04/28 00:30:03;;;;;;;2.30;1.70;;;;;;;7.34;82.19;101407.56;6275545;28;20056;-79
2023/04/28 00:33:04;;;;;;;1.83;1.48;;;;;;;7.30;81.23;101400.72;6275026;28;20045;-79
2023/04/28 00:36:07;;;;;;;3.33;1.75;;;;;;;7.25;80.18;101397.38;6274434;28;20139;-79
2023/04/28 00:39:08;;;;;;;2.58;1.60;;;;;;;7.26;81.04;101400.84;6274855;28;20056;-79
2023/04/28 00:42:11;;;;;;;3.28;1.52;;;;;;;7.26;81.26;101393.00;6278060;28;20048;-79
2023/04/28 00:45:12;;;;;;;3.10;1.90;;;;;;;7.27;79.99;101397.38;6279819;28;20053;-79
2023/04/28 00:48:14;;;;;;;2.53;1.50;;;;;;;7.20;80.17;101390.59;6279504;28;20349;-79
2023/04/28 00:51:15;;;;;;;2.90;1.75;;;;;;;7.20;79.51;101375.75;6279824;28;20345;-79
2023/04/28 00:54:17;;;;;;;3.85;1.70;;;;;;;7.17;79.85;101374.97;6279691;28;20049;-79
2023/04/28 00:57:20;;;;;;;2.55;1.60;;;;;;;7.20;80.84;101367.06;6293079;28;20123;-80
2023/04/28 01:00:21;;;;;;;2.53;1.50;;;;;;;7.22;80.87;101373.97;6296783;28;20373;-80
2023/04/28 01:03:23;;;;;;;2.42;1.60;;;;;;;7.27;81.32;101372.06;6296800;28;20040;-79
2023/04/28 01:06:24;;;;;;;5.10;2.00;;;;;;;7.25;79.34;101363.41;6304334;28;20045;-79
2023/04/28 01:09:26;;;;;;;2.38;1.80;;;;;;;7.20;80.55;101365.31;6303961;28;20059;-80
2023/04/28 01:12:29;;;;;;;3.65;1.70;;;;;;;7.24;80.34;101355.63;6299096;28;20357;-79
2023/04/28 01:15:30;;;;;;;2.05;1.73;;;;;;;7.22;79.17;101347.84;6303841;28;20048;-79
2023/04/28 01:18:32;;;;;;;2.22;1.60;;;;;;;7.17;79.57;101343.63;6303903;28;20069;-79
2023/04/28 01:21:34;;;;;;;5.72;1.92;;;;;;;7.20;79.92;101343.53;6303970;28;20052;-79
2023/04/28 01:24:37;;;;;;;4.90;1.92;;;;;;;7.20;81.09;101344.38;6303757;28;20059;-79
2023/04/28 01:27:38;;;;;;;3.58;2.10;;;;;;;7.23;81.39;101339.09;6303928;28;20049;-79
2023/04/28 01:30:39;;;;;;;4.68;1.60;;;;;;;7.27;81.10;101338.09;6303791;28;20045;-79
2023/04/28 01:33:41;;;;;;;3.60;1.65;;;;;;;7.29;80.94;101343.25;6291427;28;20335;-80
2023/04/28 01:36:42;;;;;;;4.07;1.60;;;;;;;7.29;79.51;101338.03;6278654;28;20059;-79
2023/04/28 01:39:45;;;;;;;3.60;1.80;;;;;;;7.29;79.42;101335.41;6278679;28;20057;-79
2023/04/28 01:42:46;;;;;;;3.58;1.27;;;;;;;7.33;80.17;101323.97;6278661;28;20053;-80
2023/04/28 01:45:47;;;;;;;3.25;1.33;;;;;;;7.33;80.09;101323.97;6278469;28;20052;-79
2023/04/28 01:48:49;;;;;;;3.20;1.63;;;;;;;7.32;80.78;101315.28;6278449;28;20045;-79
2023/04/28 01:51:50;;;;;;;5.70;1.73;;;;;;;7.37;80.73;101307.28;6278660;28;20044;-79
2023/04/28 01:54:53;;;;;;;2.47;1.55;;;;;;;7.37;79.44;101300.28;6277950;28;20049;-79
2023/04/28 01:57:56;;;;;;;3.00;1.55;;;;;;;7.39;79.87;101297.63;6277841;28;20442;-79
2023/04/28 02:00:58;;;;;;;2.95;1.58;;;;;;;7.33;79.14;101287.38;6278331;28;20059;-79
2023/04/28 02:04:00;;;;;;;3.75;1.77;;;;;;;7.36;79.79;101290.75;6279461;28;20449;-79
2023/04/28 02:07:01;;;;;;;2.90;1.60;;;;;;;7.40;78.06;101282.78;6296616;28;20047;-79
2023/04/28 02:10:05;;;;;;;4.20;1.52;;;;;;;7.43;77.16;101287.94;6303073;28;20064;-79
2023/04/28 02:13:07;;;;;;;2.97;1.63;;;;;;;7.46;76.88;101285.22;6303019;28;20048;-79
2023/04/28 02:16:08;;;;;;;2.45;1.58;;;;;;;7.50;78.17;101282.47;6302257;28;20048;-80
2023/04/28 02:19:09;;;;;;;5.43;1.75;;;;;;;7.50;76.79;101284.22;6302453;28;20045;-79
2023/04/28 02:22:10;;;;;;;4.50;1.90;;;;;;;7.53;77.09;101276.25;6302710;28;20053;-79
2023/04/28 02:25:13;;;;;;;3.45;1.52;;;;;;;7.58;76.55;101276.97;6282895;28;20048;-80
2023/04/28 02:28:14;;;;;;;2.33;1.40;;;;;;;7.63;76.25;101273.31;6277478;28;20057;-79
2023/04/28 02:31:16;;;;;;;5.20;1.55;;;;;;;7.63;76.34;101269.84;6276032;28;20049;-79
2023/04/28 02:34:17;;;;;;;3.45;1.45;;;;;;;7.52;72.74;101272.78;6288139;28;20480;-79
2023/04/28 02:37:18;;;;;;;5.47;1.50;;;;;;;7.48;73.75;101260.72;6297772;28;20043;-79
2023/04/28 02:40:21;;;;;;;3.97;1.65;;;;;;;7.52;75.67;101249.25;6292996;28;20060;-80
2023/04/28 02:43:22;;;;;;;4.90;1.67;;;;;;;7.59;74.69;101245.56;6285093;28;20392;-79
2023/04/28 02:46:24;;;;;;;4.35;1.60;;;;;;;7.62;75.16;101247.19;6295365;28;20044;-79
2023/04/28 02:49:25;;;;;;;2.88;1.70;;;;;;;7.58;75.03;101245.59;6289556;28;20404;-79
2023/04/28 02:52:26;;;;;;;2.88;1.85;;;;;;;7.52;74.62;101237.94;6292634;28;20053;-79
2023/04/28 02:55:29;;;;;;;2.33;1.25;;;;;;;7.52;73.78;101236.19;6291436;28;20047;-79
2023/04/28 02:58:30;;;;;;;3.00;1.83;;;;;;;7.55;75.53;101230.00;6294669;28;20066;-80
2023/04/28 03:01:32;;;;;;;1.45;1.27;;;;;;;7.55;75.45;101227.41;6289447;28;20041;-79
2023/04/28 03:04:33;;;;;;;2.28;1.50;;;;;;;7.62;76.20;101224.50;6289023;28;20047;-79
2023/04/28 03:07:34;;;;;;;2.85;1.58;;;;;;;7.57;76.00;101212.50;6291403;28;20045;-79
2023/04/28 03:10:37;;;;;;;2.83;1.58;;;;;;;7.46;74.58;101209.41;6290406;28;20055;-79
2023/04/28 03:13:38;;;;;;;4.72;1.88;;;;;;;7.48;75.29;101213.66;6289806;28;20449;-80
2023/04/28 03:16:40;;;;;;;2.72;1.65;;;;;;;7.50;75.45;101205.78;6300920;28;20056;-79
2023/04/28 03:19:41;;;;;;;3.13;1.77;;;;;;;7.39;74.00;101200.88;6300962;28;20044;-79
2023/04/28 03:22:43;;;;;;;4.60;1.85;;;;;;;7.36;76.54;101191.41;6292566;28;20060;-80
2023/04/28 03:25:45;;;;;;;6.82;2.47;;;;;;;7.32;75.74;101189.78;6299894;28;20056;-80
2023/04/28 03:28:47;;;;;;;6.20;2.10;;;;;;;7.30;74.80;101193.34;6293701;28;20045;-79
2023/04/28 03:31:48;;;;;;;2.13;1.38;;;;;;;7.27;75.41;101191.69;6281243;28;20496;-80
2023/04/28 03:34:49;;;;;;;2.67;1.60;;;;;;;7.19;75.91;101180.63;6268366;28;20047;-80
2023/04/28 03:37:51;;;;;;;4.53;1.92;;;;;;;7.17;76.49;101178.94;6282793;28;20045;-79
2023/04/28 03:40:53;;;;;;;5.25;1.50;;;;;;;7.22;76.21;101177.03;6283526;28;20547;-79
2023/04/28 03:43:55;;;;;;;2.13;1.50;;;;;;;7.25;77.19;101175.19;6283765;28;20055;-80
2023/04/28 03:46:57;;;;;;;2.47;1.52;;;;;;;7.27;77.46;101168.16;6274330;28;20128;-79
2023/04/28 03:49:58;;;;;;;3.72;1.77;;;;;;;7.24;76.75;101156.94;6258443;28;20048;-79
2023/04/28 03:53:01;;;;;;;5.85;1.88;;;;;;;7.19;77.17;101157.09;6270380;28;20050;-79
2023/04/28 03:56:03;;;;;;;5.43;2.17;;;;;;;7.20;77.27;101152.72;6284747;28;20048;-79
2023/04/28 03:59:05;;;;;;;8.60;2.75;;;;;;;7.18;77.15;101144.94;6279229;28;20040;-80
2023/04/28 04:02:07;;;;;;;6.78;2.10;;;;;;;7.22;77.71;101148.28;6258513;28;20048;-80
2023/04/28 04:05:08;;;;;;;5.68;1.80;;;;;;;7.14;77.77;101142.47;6266300;28;20098;-79
2023/04/28 04:08:09;;;;;;;6.15;2.22;;;;;;;7.17;78.36;101137.97;6273681;28;20048;-80
2023/04/28 04:11:12;;;;;;;5.88;2.20;;;;;;;7.20;77.95;101145.75;6269129;28;20041;-80
2023/04/28 04:14:13;;;;;;;4.05;1.95;;;;;;;7.22;76.87;101146.56;6280013;28;20053;-80
2023/04/28 04:17:15;;;;;;;7.50;1.65;;;;;;;7.24;76.82;101139.50;6266053;28;20043;-80
2023/04/28 04:20:16;;;;;;;10.95;2.25;;;;;;;7.26;76.48;101140.28;6281849;28;20036;-80
2023/04/28 04:23:18;;;;;;;6.80;2.30;;;;;;;7.15;75.59;101137.19;6283343;28;20036;-79
2023/04/28 04:26:21;;;;;;;4.43;2.05;;;;;;;7.16;76.99;101131.06;6284166;28;20586;-80
2023/04/28 04:29:22;;;;;;;3.13;1.85;;;;;;;7.11;76.42;101128.59;6282016;28;20043;-79
2023/04/28 04:32:23;;;;;;;5.15;2.08;;;;;;;7.19;77.60;101135.34;6296951;28;20432;-80
2023/04/28 04:35:25;;;;;;;4.05;1.67;;;;;;;7.22;77.50;101116.94;6298027;28;20047;-79
2023/04/28 04:38:26;;;;;;;3.33;1.88;;;;;;;7.12;75.85;101119.84;6299444;28;20042;-79
2023/04/28 04:41:29;;;;;;;3.42;1.75;;;;;;;7.14;77.16;101132.03;6299452;28;20345;-79
2023/04/28 04:44:30;;;;;;;2.13;1.55;;;;;;;7.23;76.88;101124.75;6299905;28;20045;-79
2023/04/28 04:47:31;;;;;;;4.07;1.77;;;;;;;7.19;75.89;101130.97;6299519;28;20341;-79
2023/04/28 04:50:33;;;;;;;9.40;1.92;;;;;;;7.20;77.14;101118.75;6291574;28;20068;-80
2023/04/28 04:53:34;;;;;;;2.20;1.45;;;;;;;7.24;77.00;101112.53;6299104;28;20360;-79
2023/04/28 04:56:37;;;;;;;4.22;1.63;;;;;;;7.15;76.13;101116.28;6294943;28;20048;-80
2023/04/28 04:59:38;;;;;;;4.15;1.85;;;;;;;7.16;76.01;101109.31;6291122;28;20041;-80
2023/04/28 05:02:40;;;;;;;4.72;2.10;;;;;;;7.21;77.13;101113.47;6289831;28;20040;-79
2023/04/28 05:05:41;;;;;;;1.90;1.48;;;;;;;7.20;76.61;101110.91;6297364;28;20064;-80
2023/04/28 05:08:42;;;;;;;4.72;2.00;;;;;;;7.21;76.05;101100.38;6299153;28;20155;-80
2023/04/28 05:11:45;;;;;;;3.35;1.65;;;;;;;7.19;75.96;101102.22;6298392;28;20056;-79
2023/04/28 05:14:47;;;;;;;5.70;1.63;;;;;;;7.30;76.74;101104.44;6292222;28;20056;-79
2023/04/28 05:17:48;;;;;;;10.88;2.28;;;;;;;7.29;76.10;101092.31;6289201;28;20045;-79
2023/04/28 05:20:50;;;;;;;2.97;2.08;;;;;;;7.36;76.03;101093.81;6283995;28;20059;-79
2023/04/28 05:23:52;;;;;;;3.80;1.73;;;;;;;7.44;75.42;101096.13;6290925;28;20056;-79
2023/04/28 05:26:59;;;;;;;7.95;2.30;;;;;;;7.50;76.79;101091.56;6297089;28;20440;-80
2023/04/28 05:30:00;;;;;;;2.05;1.63;;;;;;;7.50;75.60;101088.09;6280966;28;20437;-79
2023/04/28 05:33:01;;;;;;;2.75;1.67;;;;;;;7.55;75.57;101089.63;6301632;28;20132;-79
2023/04/28 05:36:03;;;;;;;4.65;1.65;;;;;;;7.59;76.07;101082.53;6291699;28;20044;-80
2023/04/28 05:39:04;;;;;;;9.35;3.50;;;;;;;7.66;76.39;101081.41;6298665;28;20400;-79
2023/04/28 05:42:07;;;;;;;7.65;2.67;;;;;;;7.71;76.12;101076.00;6303334;28;20055;-80
2023/04/28 05:45:10;;;;;;;4.03;2.05;;;;;;;7.73;75.73;101076.81;6299321;28;20040;-80
2023/04/28 05:48:11;;;;;;;5.57;2.17;;;;;;;7.80;76.40;101067.81;6291065;28;20040;-79
2023/04/28 05:51:12;;;;;;;3.15;1.98;;;;;;;7.79;74.72;101066.97;6298778;28;20048;-80
2023/04/28 05:54:14;;;;;;;4.07;1.77;;;;;;;7.93;75.51;101069.06;6283375;28;20052;-80
2023/04/28 05:57:16;;;;;;;8.20;2.47;;;;;;;7.99;74.71;101070.59;6302615;28;20052;-80
2023/04/28 06:00:18;;;;;;;5.97;2.28;;;;;;;8.07;75.75;101063.31;6297603;28;20045;-79
2023/04/28 06:03:20;;;;;;;8.20;2.25;;;;;;;8.16;73.88;101064.75;6288762;28;20048;-79
2023/04/28 06:06:21;;;;;;;3.75;2.30;;;;;;;8.26;74.68;101063.47;6282794;28;20187;-79
2023/04/28 06:09:22;;;;;;;3.75;2.03;;;;;;;8.37;73.85;101062.19;6300411;28;20041;-79
2023/04/28 06:12:25;;;;;;;4.78;2.55;;;;;;;8.43;71.58;101057.63;6296653;28;20445;-80
2023/04/28 06:15:27;;;;;;;3.70;1.95;;;;;;;8.51;73.04;101055.56;6294206;28;20099;-80
2023/04/28 06:18:31;;;;;;;10.18;2.58;;;;;;;8.55;70.51;101058.00;6301034;28;20425;-80
2023/04/28 06:21:32;;;;;;;7.90;2.55;;;;;;;8.64;70.66;101060.25;6302363;28;20127;-80
2023/04/28 06:24:33;;;;;;;2.88;1.90;;;;;;;8.75;73.61;101061.56;6302740;28;20040;-80
2023/04/28 06:27:36;;;;;;;10.27;2.85;;;;;;;8.80;72.53;101064.84;6302301;28;20059;-79
2023/04/28 06:30:37;;;;;;;9.82;2.20;;;;;;;8.80;69.31;101055.22;6295874;28;20067;-79
2023/04/28 06:33:39;;;;;;;5.05;2.35;;;;;;;8.87;70.00;101061.91;6284461;28;20041;-79
2023/04/28 06:36:40;;;;;;;3.97;2.22;;;;;;;8.96;71.27;101044.97;6276478;28;20067;-80
2023/04/28 06:39:42;;;;;;;4.65;2.38;;;;;;;9.03;70.87;101048.16;6268788;28;20045;-79
2023/04/28 06:42:45;;;;;;;6.13;2.13;;;;;;;9.11;72.18;101052.16;6273447;28;20053;-79
2023/04/28 06:45:47;;;;;;;4.28;2.60;;;;;;;9.16;69.95;101051.97;6269491;28;20056;-79
2023/04/28 06:48:48;;;;;;;3.47;2.33;;;;;;;9.25;69.02;101054.19;6276595;28;20447;-79
2023/04/28 06:51:49;;;;;;;7.07;2.47;;;;;;;9.29;69.20;101053.16;6276856;28;20433;-80
2023/04/28 06:54:51;;;;;;;5.25;2.60;;;;;;;9.34;70.26;101038.06;6276117;28;20448;-79
2023/04/28 06:57:54;;;;;;;4.25;2.40;;;;;;;9.40;69.18;101047.44;6276573;28;20456;-80
2023/04/28 07:00:55;;;;;;;3.35;2.05;;;;;;;9.45;69.93;101048.13;6276863;28;20460;-80
2023/04/28 07:03:56;;;;;;;5.53;2.50;;;;;;;9.53;68.93;101042.50;6276339;28;20061;-80
2023/04/28 07:06:58;;;;;;;5.57;2.40;;;;;;;9.58;69.84;101043.16;6276434;28;20049;-81
2023/04/28 07:09:59;;;;;;;5.18;2.67;;;;;;;9.63;69.57;101041.19;6276396;28;20052;-80
2023/04/28 07:13:02;;;;;;;5.15;2.30;;;;;;;9.71;71.29;101035.59;6276410;28;20044;-80
2023/04/28 07:16:04;;;;;;;7.88;3.55;;;;;;;9.71;69.68;101035.59;6276411;28;20041;-80
2023/04/28 07:19:05;;;;;;;4.88;2.50;;;;;;;9.76;69.77;101033.59;6276159;28;20045;-80
2023/04/28 07:22:07;;;;;;;8.27;2.85;;;;;;;9.79;69.59;101030.84;6276015;28;20049;-80
2023/04/28 07:25:08;;;;;;;4.85;2.80;;;;;;;9.80;67.93;101032.53;6276275;28;20045;-80
2023/04/28 07:28:11;;;;;;;6.57;3.10;;;;;;;9.82;67.10;101025.47;6275824;28;20357;-80
2023/04/28 07:31:13;;;;;;;6.07;2.83;;;;;;;9.87;69.07;101032.22;6276192;28;20041;-80
2023/04/28 07:34:14;;;;;;;8.07;2.67;;;;;;;9.91;68.36;101025.06;6275740;28;20437;-80
2023/04/28 07:37:16;;;;;;;5.68;2.63;;;;;;;9.96;69.66;101028.31;6275581;28;20055;-80
2023/04/28 07:40:17;;;;;;;10.80;2.80;;;;;;;10.01;68.78;101025.47;6275438;28;20045;-80
2023/04/28 07:43:20;;;;;;;10.45;3.13;;;;;;;10.02;68.92;101021.91;6275447;28;20045;-80
2023/04/28 07:46:22;;;;;;;4.22;2.83;;;;;;;10.05;68.39;101025.25;6275694;28;20052;-80
2023/04/28 07:49:23;;;;;;;7.70;3.53;;;;;;;10.11;68.95;101024.13;6275347;28;20124;-80
2023/04/28 07:52:25;;;;;;;8.15;3.15;;;;;;;10.14;66.10;101016.94;6275178;28;20045;-80
2023/04/28 07:55:26;;;;;;;4.72;2.60;;;;;;;10.19;66.33;101008.84;6269972;28;20426;-80
2023/04/28 07:58:29;;;;;;;13.68;2.88;;;;;;;10.25;67.99;101011.22;6264291;28;20048;-80
2023/04/28 08:01:30;;;;;;;7.95;3.00;;;;;;;10.35;68.17;101012.47;6267054;28;20053;-80
2023/04/28 08:04:33;;;;;;;6.00;2.63;;;;;;;10.41;69.47;101012.19;6273159;28;20041;-79
2023/04/28 08:07:36;;;;;;;4.55;2.90;;;;;;;10.48;67.09;101006.63;6266214;28;20461;-77
2023/04/28 08:10:39;;;;;;;6.78;3.05;;;;;;;10.56;69.63;101004.47;6263149;28;20056;-78
2023/04/28 08:13:42;;;;;;;4.03;2.63;;;;;;;10.59;66.32;101001.72;6269588;28;20349;-78
2023/04/28 08:16:44;;;;;;;5.28;2.95;;;;;;;10.66;66.85;100998.69;6273425;28;20041;-79
2023/04/28 08:19:46;;;;;;;8.90;3.20;;;;;;;10.74;67.23;101000.09;6264995;28;20053;-78
2023/04/28 08:22:47;;;;;;;9.93;3.28;;;;;;;10.76;65.63;100995.59;6267880;28;20394;-79
2023/04/28 08:25:50;;;;;;;4.90;3.08;;;;;;;10.81;66.63;100988.31;6268757;28;20050;-78
2023/04/28 08:28:52;;;;;;;5.88;3.28;;;;;;;10.88;66.45;100995.84;6269467;28;20045;-78
2023/04/28 08:31:54;;;;;;;6.30;3.58;;;;;;;10.88;67.04;101001.09;6275055;28;20437;-79
2023/04/28 08:34:55;;;;;;;6.15;3.10;;;;;;;10.89;66.68;100996.69;6268238;28;20057;-78
2023/04/28 08:37:57;;;;;;;6.15;3.50;;;;;;;10.88;66.58;101000.25;6270778;28;20061;-79
2023/04/28 08:40:58;;;;;;;7.20;3.05;;;;;;;10.89;65.53;100997.53;6263948;28;20426;-78
2023/04/28 08:44:01;;;;;;;8.02;3.47;;;;;;;10.93;65.63;100996.44;6271967;28;20464;-78
2023/04/28 08:47:04;;;;;;;5.00;2.92;;;;;;;10.99;68.29;101002.31;6271783;28;20049;-78
2023/04/28 08:50:07;;;;;;;8.10;3.30;;;;;;;11.06;68.12;101004.56;6268821;28;20045;-78
2023/04/28 08:53:12;;;;;;;6.20;2.65;;;;;;;11.14;68.87;100999.78;6274830;28;20055;-79
2023/04/28 08:56:15;;;;;;;8.18;3.50;;;;;;;11.21;67.79;100996.81;6274197;28;20045;-78
2023/04/28 08:59:19;;;;;;;6.72;3.15;;;;;;;11.24;65.74;101007.19;6274382;28;20045;-78
2023/04/28 09:02:20;;;;;;;11.57;3.53;;;;;;;11.27;66.55;100999.16;6274629;28;20041;-76
2023/04/28 09:05:22;;;;;;;6.55;2.97;;;;;;;11.25;67.04;100996.56;6278901;28;20044;-77
2023/04/28 09:08:23;;;;;;;6.72;3.30;;;;;;;11.30;67.05;100991.91;6279207;28;20453;-77
2023/04/28 09:11:24;;;;;;;5.47;3.13;;;;;;;11.33;66.34;101002.28;6278679;28;20049;-77
2023/04/28 09:14:28;;;;;;;11.07;3.58;;;;;;;11.33;65.54;100993.53;6273100;28;20357;-77
2023/04/28 09:17:30;;;;;;;15.98;3.38;;;;;;;11.34;66.43;100987.34;6272353;28;20155;-77
2023/04/28 09:20:33;;;;;;;6.32;3.30;;;;;;;11.35;65.62;100989.88;6269770;28;20045;-77
2023/04/28 09:23:34;;;;;;;9.48;3.58;;;;;;;11.34;65.89;100982.09;6269512;28;20049;-76
2023/04/28 09:26:49;;;;;;;8.63;3.45;;;;;;;11.37;69.03;100987.19;6273117;28;20044;-76
2023/04/28 09:29:54;;;;;;;5.90;3.10;;;;;;;11.34;69.74;100982.94;6269172;28;20056;-77
2023/04/28 09:33:04;;;;;;;9.95;3.13;;;;;;;11.30;68.27;100980.53;6271652;28;20445;-77
2023/04/28 09:36:06;;;;;;;7.40;3.30;;;;;;;11.25;68.10;100979.94;6273886;28;20092;-80
2023/04/28 09:39:07;;;;;;;6.07;3.55;;;;;;;11.25;70.81;100977.31;6268342;28;20049;-79
2023/04/28 09:42:08;;;;;;;7.72;3.60;;;;;;;11.24;71.21;100973.81;6273669;28;20131;-79
2023/04/28 09:45:13;;;;;;;9.25;3.47;;;;;;;11.28;71.43;100985.91;6276772;28;20052;-79
2023/04/28 09:48:14;;;;;;;5.15;3.08;;;;;;;11.26;71.84;100971.94;6276164;28;20052;-79
2023/04/28 09:51:20;;;;;;;11.82;3.80;;;;;;;11.32;70.02;100982.19;6278214;28;20346;-79
2023/04/28 09:54:23;;;;;;;5.10;2.90;;;;;;;11.35;71.97;100981.16;6277999;28;20344;-79
2023/04/28 09:57:24;;;;;;;10.18;3.55;;;;;;;11.37;74.08;100979.31;6277881;28;20047;-79
2023/04/28 10:00:28;;;;;;;6.75;3.60;;;;;;;11.39;76.10;100980.91;6277941;28;20041;-79
2023/04/28 10:03:30;;;;;;;8.32;3.78;;;;;;;11.46;81.55;100975.34;6277738;28;20445;-79
2023/04/28 10:06:34;;;;;;;8.38;4.18;;;;;;;11.53;84.31;100982.81;6277879;28;20049;-79
2023/04/28 10:09:36;;;;;;;6.32;3.83;;;;;;;11.55;83.36;100975.69;6277535;28;20124;-79
2023/04/28 10:12:37;;;;;;;6.05;3.50;;;;;;;11.56;81.65;100976.53;6277923;28;20053;-79
2023/04/28 10:15:40;;;;;;;10.60;3.72;;;;;;;11.55;81.77;100967.78;6277193;28;20052;-79
2023/04/28 10:18:43;;;;;;;7.38;3.15;;;;;;;11.55;82.71;100970.44;6269419;28;20489;-77
2023/04/28 10:21:55;;;;;;;4.50;3.30;;;;;;;11.55;83.02;100965.16;6277160;28;20053;-77
2023/04/28 10:25:12;;;;;;;8.52;4.13;;;;;;;11.58;82.54;100962.38;6277684;28;20056;-77
2023/04/28 10:28:15;;;;;;;7.10;3.85;;;;;;;11.65;83.37;100958.47;6277540;28;20141;-77
2023/04/28 10:31:20;;;;;;;11.93;3.70;;;;;;;11.72;81.09;100963.38;6277527;28;20056;-77
2023/04/28 10:34:24;;;;;;;10.43;4.22;;;;;;;11.82;82.63;100956.69;6276928;28;20045;-77
2023/04/28 10:37:55;;;;;;;8.48;4.22;;;;;;;11.81;80.63;100954.97;6276934;28;20400;-77
2023/04/28 10:41:01;;;;;;;14.95;4.90;;;;;;;11.98;78.37;100949.66;6270950;28;20048;-77
2023/04/28 10:44:41;;;;;;;7.05;4.07;;;;;;;12.13;76.19;100934.81;6277041;28;20147;-77
2023/04/28 10:48:05;;;;;;;8.27;3.83;;;;;;;12.27;74.17;100926.94;6276785;28;20052;-77
2023/04/28 10:51:24;;;;;;;9.57;4.50;;;;;;;12.40;75.14;100932.38;6277053;28;20041;-77
2023/04/28 10:54:27;;;;;;;8.25;4.25;;;;;;;12.53;75.30;100919.31;6276845;28;20045;-77
2023/04/28 10:57:28;;;;;;;9.43;4.28;;;;;;;12.61;73.45;100912.63;6276918;28;20049;-77
2023/04/28 11:00:30;;;;;;;7.97;3.78;;;;;;;12.73;71.76;100911.06;6276581;28;20044;-77
2023/04/28 11:03:49;;;;;;;14.93;4.15;;;;;;;12.74;70.04;100904.84;6275951;28;20045;-77
2023/04/28 11:07:10;;;;;;;7.68;3.90;;;;;;;12.68;71.34;100907.88;6269747;28;20044;-78
2023/04/28 11:10:11;;;;;;;7.65;3.97;;;;;;;12.62;69.59;100909.06;6276552;28;20051;-77
2023/04/28 11:13:25;;;;;;;6.70;4.32;;;;;;;12.64;70.07;100898.44;6275864;28;20049;-77
2023/04/28 11:16:26;;;;;;;10.70;5.00;;;;;;;12.65;70.15;100898.34;6276383;28;20429;-77
2023/04/28 11:19:30;;;;;;;9.35;3.70;;;;;;;12.72;72.75;100887.41;6275661;28;20048;-78
2023/04/28 11:22:33;;;;;;;11.10;5.10;;;;;;;12.85;72.85;100886.63;6275650;28;20127;-77
2023/04/28 11:25:55;;;;;;;9.27;4.43;;;;;;;12.92;70.96;100889.72;6274946;28;20041;-77
2023/04/28 11:28:58;;;;;;;9.50;4.25;;;;;;;12.96;70.79;100883.31;6275846;28;20049;-77
2023/04/28 11:31:59;;;;;;;9.32;3.63;;;;;;;12.97;71.17;100886.78;6275582;28;20049;-78
2023/04/28 11:35:04;;;;;;;7.72;4.13;;;;;;;13.05;71.29;100885.38;6275891;28;20102;-78
2023/04/28 11:38:05;;;;;;;8.07;3.97;;;;;;;13.08;69.63;100876.41;6275552;28;20131;-78
2023/04/28 11:41:06;;;;;;;8.50;3.38;;;;;;;13.04;69.15;100882.84;6275152;28;20061;-77
2023/04/28 11:44:12;;;;;;;7.25;3.47;;;;;;;13.07;69.13;100872.09;6275331;28;20045;-78
2023/04/28 11:47:13;;;;;;;10.73;4.32;;;;;;;13.03;69.24;100874.06;6271710;28;20041;-77
2023/04/28 11:50:16;;;;;;;8.23;3.88;;;;;;;13.03;70.11;100875.84;6275703;28;20037;-77
2023/04/28 11:53:18;;;;;;;9.15;3.75;;;;;;;13.08;70.52;100865.84;6274623;28;20057;-77
2023/04/28 11:56:20;;;;;;;7.90;3.80;;;;;;;13.16;69.16;100864.44;6275277;28;20045;-77
2023/04/28 11:59:24;;;;;;;8.05;4.20;;;;;;;13.17;69.16;100867.94;6274929;28;20428;-77
2023/04/28 12:02:28;;;;;;;7.10;3.97;;;;;;;13.18;69.25;100862.56;6271179;28;20045;-78
2023/04/28 12:05:33;;;;;;;14.50;4.20;;;;;;;13.20;69.33;100863.31;6262489;28;20051;-78
2023/04/28 12:08:34;;;;;;;12.00;4.20;;;;;;;13.18;70.10;100857.28;6262869;28;20040;-78
2023/04/28 12:11:36;;;;;;;6.57;4.22;;;;;;;13.15;69.31;100860.13;6265113;28;20425;-78
2023/04/28 12:14:58;;;;;;;8.13;3.97;;;;;;;13.10;69.30;100866.63;6272441;28;20048;-79
2023/04/28 12:18:09;;;;;;;9.90;3.90;;;;;;;13.01;69.16;100864.56;6266233;28;20053;-80
2023/04/28 12:21:21;;;;;;;12.13;4.85;;;;;;;13.03;70.22;100846.84;6268713;28;20045;-80
2023/04/28 12:24:24;;;;;;;10.80;3.95;;;;;;;13.12;69.67;100851.53;6269536;28;20357;-79
2023/04/28 12:27:27;;;;;;;7.88;3.75;;;;;;;13.24;69.70;100848.19;6272991;28;20049;-79
2023/04/28 12:30:30;;;;;;;8.27;4.40;;;;;;;13.46;69.06;100842.38;6270018;28;20037;-79
2023/04/28 12:33:36;;;;;;;8.73;4.07;;;;;;;13.64;68.67;100830.66;6266772;28;20045;-79
2023/04/28 12:36:38;;;;;;;14.00;4.53;;;;;;;13.71;68.08;100829.28;6273055;28;20444;-79
2023/04/28 12:39:41;;;;;;;7.82;3.45;;;;;;;13.75;68.91;100822.00;6279051;28;20037;-79
2023/04/28 12:42:42;;;;;;;7.03;3.70;;;;;;;13.76;69.52;100817.56;6276999;28;20037;-79
2023/04/28 12:45:44;;;;;;;7.55;4.10;;;;;;;13.81;68.57;100818.16;6279796;28;20044;-80
2023/04/28 12:48:45;;;;;;;9.63;4.28;;;;;;;13.92;68.13;100821.75;6279712;28;20049;-80
2023/04/28 12:51:48;;;;;;;6.80;3.63;;;;;;;14.02;68.09;100819.34;6279512;28;20332;-80
2023/04/28 12:54:49;;;;;;;8.98;3.63;;;;;;;14.02;68.72;100813.22;6279475;28;20052;-79
2023/04/28 12:57:50;;;;;;;9.10;4.50;;;;;;;14.01;70.20;100809.72;6279192;28;20044;-79
2023/04/28 13:00:52;;;;;;;9.35;3.70;;;;;;;14.04;70.83;100808.69;6273525;28;20179;-79
2023/04/28 13:03:53;;;;;;;9.60;4.55;;;;;;;14.10;69.91;100801.19;6278364;28;20056;-80
2023/04/28 13:06:57;;;;;;;7.85;4.13;;;;;;;14.25;69.33;100795.81;6277722;28;20060;-79
2023/04/28 13:09:59;;;;;;;13.65;3.70;;;;;;;14.45;72.01;100804.09;6278061;28;20052;-80
2023/04/28 13:13:00;;;;;;;8.20;3.78;;;;;;;14.72;69.60;100800.53;6278654;28;20567;-80
2023/04/28 13:16:03;;;;;;;6.38;3.45;;;;;;;15.13;68.58;100799.41;6279126;28;20051;-80
2023/04/28 13:19:08;;;;;;;8.85;3.80;;;;;;;15.46;68.19;100798.75;6274266;28;20068;-79
2023/04/28 13:22:11;;;;;;;6.22;3.35;;;;;;;15.40;66.72;100800.06;6277508;28;20133;-80
2023/04/28 13:25:12;;;;;;;5.80;2.50;;;;;;;15.11;67.15;100807.44;6278220;28;20052;-79
2023/04/28 13:28:14;;;;;;;5.20;3.05;;;;;;;14.93;69.21;100792.84;6278518;28;20072;-80
2023/04/28 13:31:15;;;;;;;7.93;2.78;;;;;;;14.89;71.02;100789.56;6278525;28;20045;-80
2023/04/28 13:34:17;;;;;;;6.57;2.97;;;;;;;14.86;71.93;100776.59;6277515;28;20048;-80
2023/04/28 13:37:20;;;;;;;6.78;2.70;;;;;;;14.87;71.08;100780.06;6278398;28;20056;-79
2023/04/28 13:40:21;;;;;;;4.45;3.10;;;;;;;14.87;73.30;100775.63;6278050;28;20345;-79
2023/04/28 13:43:23;;;;;;;5.40;2.97;;;;;;;14.82;72.24;100772.47;6277113;28;20073;-79
2023/04/28 13:46:25;;;;;;;5.68;3.15;;;;;;;14.78;72.15;100765.69;6278465;28;20045;-80
2023/04/28 13:49:26;;;;;;;8.50;3.60;;;;;;;14.81;74.85;100772.56;6273071;28;20057;-80
2023/04/28 13:52:29;;;;;;;8.13;4.00;;;;;;;14.91;71.06;100774.44;6271135;28;20049;-80
2023/04/28 13:55:31;;;;;;;5.88;3.08;;;;;;;15.13;71.63;100767.63;6273348;28;20334;-80
2023/04/28 13:58:32;;;;;;;8.95;3.92;;;;;;;15.22;69.95;100765.16;6277822;28;20037;-80
2023/04/28 14:01:34;;;;;;;6.10;3.53;;;;;;;15.24;69.32;100770.34;6274454;28;20038;-80
2023/04/28 14:04:35;;;;;;;7.20;3.00;;;;;;;15.26;72.84;100767.56;6277048;28;20057;-79
2023/04/28 14:07:38;;;;;;;7.55;3.80;;;;;;;15.17;71.24;100769.06;6277533;28;20330;-80
2023/04/28 14:10:39;;;;;;;5.93;3.65;;;;;;;15.01;74.06;100765.84;6282134;28;20444;-79
2023/04/28 14:13:41;;;;;;;6.97;3.15;;;;;;;14.89;75.39;100770.22;6266177;28;20044;-80
2023/04/28 14:16:43;;;;;;;6.38;3.58;;;;;;;14.67;74.39;100771.75;6266356;28;20049;-79